sensor_id;sensor_type;location;lat;lon;timestamp;P1;durP1;ratioP1;P2;durP2;ratioP2
55527;SDS011;52818;43.308;21.916;2024-02-15T00:02:37;24.50;;;16.50;;
55527;SDS011;52818;43.308;21.916;2024-02-15T00:04:43;24.00;;;16.40;;
55527;SDS011;52818;43.308;21.916;2024-02-15T00:08:40;36.00;;;23.30;;
55527;SDS011;52818;43.308;21.916;2024-02-15T00:10:41;31.70;;;22.50;;
55527;SDS011;52818;43.308;21.916;2024-02-15T00:12:35;33.30;;;22.70;;
55527;SDS011;52818;43.308;21.916;2024-02-15T00:14:38;28.40;;;21.50;;
55527;SDS011;52818;43.308;21.916;2024-02-15T00:16:33;29.60;;;20.00;;
55527;SDS011;52818;43.308;21.916;2024-02-15T00:18:34;28.50;;;20.20;;
55527;SDS011;52818;43.308;21.916;2024-02-15T00:20:37;31.70;;;19.90;;
55527;SDS011;52818;43.308;21.916;2024-02-15T00:22:38;24.60;;;16.50;;
55527;SDS011;52818;43.308;21.916;2024-02-15T00:24:39;23.50;;;16.80;;
55527;SDS011;52818;43.308;21.916;2024-02-15T00:26:34;24.90;;;16.30;;
55527;SDS011;52818;43.308;21.916;2024-02-15T00:28:34;21.80;;;15.30;;
55527;SDS011;52818;43.308;21.916;2024-02-15T00:30:34;23.20;;;15.70;;
55527;SDS011;52818;43.308;21.916;2024-02-15T00:32:37;23.40;;;16.40;;
55527;SDS011;52818;43.308;21.916;2024-02-15T00:34:34;27.20;;;17.90;;
55527;SDS011;52818;43.308;21.916;2024-02-15T00:36:36;23.10;;;16.50;;
55527;SDS011;52818;43.308;21.916;2024-02-15T00:38:38;22.60;;;16.20;;
55527;SDS011;52818;43.308;21.916;2024-02-15T00:40:35;22.80;;;16.00;;
55527;SDS011;52818;43.308;21.916;2024-02-15T00:42:35;24.50;;;16.30;;
55527;SDS011;52818;43.308;21.916;2024-02-15T00:44:35;23.60;;;16.00;;
55527;SDS011;52818;43.308;21.916;2024-02-15T00:46:35;27.20;;;17.50;;
55527;SDS011;52818;43.308;21.916;2024-02-15T00:48:39;25.90;;;18.50;;
55527;SDS011;52818;43.308;21.916;2024-02-15T00:52:36;31.40;;;21.50;;
55527;SDS011;52818;43.308;21.916;2024-02-15T00:54:40;30.10;;;19.70;;
55527;SDS011;52818;43.308;21.916;2024-02-15T00:56:35;31.10;;;20.60;;
55527;SDS011;52818;43.308;21.916;2024-02-15T00:58:39;29.60;;;19.10;;
55527;SDS011;52818;43.308;21.916;2024-02-15T01:00:35;29.30;;;19.70;;
55527;SDS011;52818;43.308;21.916;2024-02-15T01:02:36;26.60;;;18.20;;
55527;SDS011;52818;43.308;21.916;2024-02-15T01:04:40;25.50;;;17.60;;
55527;SDS011;52818;43.308;21.916;2024-02-15T01:06:38;26.50;;;17.70;;
55527;SDS011;52818;43.308;21.916;2024-02-15T01:10:40;26.70;;;;;
55527;SDS011;52818;43.308;21.916;2024-02-15T01:12:40;24.20;;;16.60;;
55527;SDS011;52818;43.308;21.916;2024-02-15T01:14:40;23.00;;;16.70;;
55527;SDS011;52818;43.308;21.916;2024-02-15T01:16:46;23.80;;;16.50;;
55527;SDS011;52818;43.308;21.916;2024-02-15T01:20:46;21.20;;;15.50;;
55527;SDS011;52818;43.308;21.916;2024-02-15T01:22:39;24.00;;;16.20;;
55527;SDS011;52818;43.308;21.916;2024-02-15T01:26:38;23.10;;;16.40;;
55527;SDS011;52818;43.308;21.916;2024-02-15T01:28:38;24.10;;;16.50;;
55527;SDS011;52818;43.308;21.916;2024-02-15T01:30:41;30.60;;;20.90;;
55527;SDS011;52818;43.308;21.916;2024-02-15T01:32:41;34.50;;;22.80;;
55527;SDS011;52818;43.308;21.916;2024-02-15T01:34:39;31.90;;;21.30;;
55527;SDS011;52818;43.308;21.916;2024-02-15T01:36:41;28.30;;;19.90;;
55527;SDS011;52818;43.308;21.916;2024-02-15T01:38:42;23.90;;;16.60;;
55527;SDS011;52818;43.308;21.916;2024-02-15T01:42:38;24.20;;;16.40;;
55527;SDS011;52818;43.308;21.916;2024-02-15T01:44:38;;;;16.10;;
55527;SDS011;52818;43.308;21.916;2024-02-15T01:46:38;18.10;;;14.00;;
55527;SDS011;52818;43.308;21.916;2024-02-15T01:48:39;21.70;;;14.10;;
55527;SDS011;52818;43.308;21.916;2024-02-15T01:50:38;18.90;;;13.30;;
55527;SDS011;52818;43.308;21.916;2024-02-15T01:52:39;20.50;;;14.00;;
55527;SDS011;52818;43.308;21.916;2024-02-15T01:54:42;23.00;;;15.40;;
55527;SDS011;52818;43.308;21.916;2024-02-15T01:56:39;22.70;;;15.30;;
55527;SDS011;52818;43.308;21.916;2024-02-15T01:58:45;31.50;;;21.80;;
55527;SDS011;52818;43.308;21.916;2024-02-15T02:00:38;23.10;;;16.60;;
55527;SDS011;52818;43.308;21.916;2024-02-15T02:02:43;24.40;;;;;
55527;SDS011;52818;43.308;21.916;2024-02-15T02:04:39;24.00;;;16.80;;
55527;SDS011;52818;43.308;21.916;2024-02-15T02:06:39;29.20;;;18.50;;
55527;SDS011;52818;43.308;21.916;2024-02-15T02:08:39;26.70;;;17.90;;
55527;SDS011;52818;43.308;21.916;2024-02-15T02:10:40;27.90;;;18.50;;
55527;SDS011;52818;43.308;21.916;2024-02-15T02:12:39;30.20;;;19.80;;
55527;SDS011;52818;43.308;21.916;2024-02-15T02:14:49;35.70;;;22.70;;
55527;SDS011;52818;43.308;21.916;2024-02-15T02:20:46;33.70;;;20.20;;
55527;SDS011;52818;43.308;21.916;2024-02-15T02:26:44;37.00;;;24.30;;
55527;SDS011;52818;43.308;21.916;2024-02-15T02:28:45;33.20;;;21.50;;
55527;SDS011;52818;43.308;21.916;2024-02-15T02:34:44;31.40;;;20.90;;
55527;SDS011;52818;43.308;21.916;2024-02-15T02:36:43;29.40;;;18.20;;
55527;SDS011;52818;43.308;21.916;2024-02-15T02:38:40;29.00;;;;;
55527;SDS011;52818;43.308;21.916;2024-02-15T02:40:43;33.40;;;21.70;;
55527;SDS011;52818;43.308;21.916;2024-02-15T02:42:48;32.80;;;22.70;;
55527;SDS011;52818;43.308;21.916;2024-02-15T02:48:46;24.20;;;16.20;;
55527;SDS011;52818;43.308;21.916;2024-02-15T02:50:41;27.40;;;17.20;;
55527;SDS011;52818;43.308;21.916;2024-02-15T02:52:48;35.40;;;22.40;;
55527;SDS011;52818;43.308;21.916;2024-02-15T02:54:46;32.80;;;21.20;;
55527;SDS011;52818;43.308;21.916;2024-02-15T02:58:44;29.60;;;20.80;;
55527;SDS011;52818;43.308;21.916;2024-02-15T03:00:42;37.60;;;25.40;;
55527;SDS011;52818;43.308;21.916;2024-02-15T03:02:42;41.50;;;26.30;;
55527;SDS011;52818;43.308;21.916;2024-02-15T03:04:41;42.20;;;29.00;;
55527;SDS011;52818;43.308;21.916;2024-02-15T03:06:41;52.30;;;34.00;;
55527;SDS011;52818;43.308;21.916;2024-02-15T03:08:42;41.00;;;25.70;;
55527;SDS011;52818;43.308;21.916;2024-02-15T03:10:42;29.90;;;19.20;;
55527;SDS011;52818;43.308;21.916;2024-02-15T03:12:42;23.60;;;15.80;;
55527;SDS011;52818;43.308;21.916;2024-02-15T03:14:42;25.20;;;16.00;;
55527;SDS011;52818;43.308;21.916;2024-02-15T03:16:47;31.20;;;21.30;;
55527;SDS011;52818;43.308;21.916;2024-02-15T03:18:42;32.30;;;;;
55527;SDS011;52818;43.308;21.916;2024-02-15T03:20:42;30.20;;;20.90;;
55527;SDS011;52818;43.308;21.916;2024-02-15T03:22:42;32.50;;;21.30;;
55527;SDS011;52818;43.308;21.916;2024-02-15T03:24:42;39.40;;;25.70;;
55527;SDS011;52818;43.308;21.916;2024-02-15T03:26:50;43.40;;;26.80;;
55527;SDS011;52818;43.308;21.916;2024-02-15T03:28:42;40.60;;;25.30;;
55527;SDS011;52818;43.308;21.916;2024-02-15T03:30:43;35.80;;;23.20;;
55527;SDS011;52818;43.308;21.916;2024-02-15T03:32:43;33.20;;;22.30;;
55527;SDS011;52818;43.308;21.916;2024-02-15T03:34:43;31.30;;;22.50;;
55527;SDS011;52818;43.308;21.916;2024-02-15T03:36:43;33.20;;;21.80;;
55527;SDS011;52818;43.308;21.916;2024-02-15T03:38:43;32.60;;;22.50;;
55527;SDS011;52818;43.308;21.916;2024-02-15T03:40:43;35.30;;;22.80;;
55527;SDS011;52818;43.308;21.916;2024-02-15T03:42:43;36.70;;;23.70;;
55527;SDS011;52818;43.308;21.916;2024-02-15T03:44:43;32.30;;;21.30;;
55527;SDS011;52818;43.308;21.916;2024-02-15T03:46:46;26.60;;;17.90;;
55527;SDS011;52818;43.308;21.916;2024-02-15T03:48:43;25.40;;;17.10;;
55527;SDS011;52818;43.308;21.916;2024-02-15T03:50:43;27.40;;;18.30;;
55527;SDS011;52818;43.308;21.916;2024-02-15T03:52:44;26.00;;;17.30;;
55527;SDS011;52818;43.308;21.916;2024-02-15T03:54:44;22.60;;;17.20;;
55527;SDS011;52818;43.308;21.916;2024-02-15T03:56:50;23.60;;;15.30;;
55527;SDS011;52818;43.308;21.916;2024-02-15T03:58:44;24.20;;;16.00;;
55527;SDS011;52818;43.308;21.916;2024-02-15T04:00:47;20.40;;;14.80;;
55527;SDS011;52818;43.308;21.916;2024-02-15T04:02:44;19.50;;;13.30;;
55527;SDS011;52818;43.308;21.916;2024-02-15T04:04:47;20.40;;;13.00;;
55527;SDS011;52818;43.308;21.916;2024-02-15T04:06:44;19.40;;;13.20;;
55527;SDS011;52818;43.308;21.916;2024-02-15T04:08:46;19.90;;;12.90;;
55527;SDS011;52818;43.308;21.916;2024-02-15T04:10:44;25.30;;;16.70;;
55527;SDS011;52818;43.308;21.916;2024-02-15T04:12:45;25.50;;;17.90;;
55527;SDS011;52818;43.308;21.916;2024-02-15T04:14:46;33.90;;;21.00;;
55527;SDS011;52818;43.308;21.916;2024-02-15T04:16:45;35.30;;;22.40;;
55527;SDS011;52818;43.308;21.916;2024-02-15T04:18:52;48.20;;;29.60;;
55527;SDS011;52818;43.308;21.916;2024-02-15T04:20:45;42.00;;;26.60;;
55527;SDS011;52818;43.308;21.916;2024-02-15T04:22:45;68.80;;;40.60;;
55527;SDS011;52818;43.308;21.916;2024-02-15T04:24:45;40.00;;;26.40;;
55527;SDS011;52818;43.308;21.916;2024-02-15T04:26:45;43.20;;;27.50;;
55527;SDS011;52818;43.308;21.916;2024-02-15T04:28:45;36.10;;;22.90;;
55527;SDS011;52818;43.308;21.916;2024-02-15T04:30:45;35.20;;;23.70;;
55527;SDS011;52818;43.308;21.916;2024-02-15T04:32:46;33.90;;;22.80;;
55527;SDS011;52818;43.308;21.916;2024-02-15T04:34:47;33.80;;;23.70;;
55527;SDS011;52818;43.308;21.916;2024-02-15T04:36:46;35.70;;;23.80;;
55527;SDS011;52818;43.308;21.916;2024-02-15T04:38:49;37.80;;;25.80;;
55527;SDS011;52818;43.308;21.916;2024-02-15T04:40:51;36.10;;;24.50;;
55527;SDS011;52818;43.308;21.916;2024-02-15T04:42:51;36.60;;;22.90;;
55527;SDS011;52818;43.308;21.916;2024-02-15T04:44:46;36.90;;;24.10;;
55527;SDS011;52818;43.308;21.916;2024-02-15T04:46:46;34.30;;;23.80;;
55527;SDS011;52818;43.308;21.916;2024-02-15T04:48:54;41.00;;;28.80;;
55527;SDS011;52818;43.308;21.916;2024-02-15T04:50:46;38.80;;;27.70;;
55527;SDS011;52818;43.308;21.916;2024-02-15T04:52:46;41.50;;;28.30;;
55527;SDS011;52818;43.308;21.916;2024-02-15T04:54:46;39.70;;;25.20;;
55527;SDS011;52818;43.308;21.916;2024-02-15T04:56:47;41.90;;;27.30;;
55527;SDS011;52818;43.308;21.916;2024-02-15T04:58:47;65.30;;;43.70;;
55527;SDS011;52818;43.308;21.916;2024-02-15T05:00:51;57.10;;;36.00;;
55527;SDS011;52818;43.308;21.916;2024-02-15T05:02:47;46.10;;;32.20;;
55527;SDS011;52818;43.308;21.916;2024-02-15T05:04:52;39.40;;;26.50;;
55527;SDS011;52818;43.308;21.916;2024-02-15T05:06:50;38.30;;;25.40;;
55527;SDS011;52818;43.308;21.916;2024-02-15T05:08:47;35.30;;;24.40;;
55527;SDS011;52818;43.308;21.916;2024-02-15T05:10:47;36.90;;;23.40;;
55527;SDS011;52818;43.308;21.916;2024-02-15T05:12:47;32.20;;;22.60;;
55527;SDS011;52818;43.308;21.916;2024-02-15T05:14:52;31.60;;;22.20;;
55527;SDS011;52818;43.308;21.916;2024-02-15T05:16:47;32.40;;;21.20;;
55527;SDS011;52818;43.308;21.916;2024-02-15T05:18:48;26.00;;;19.00;;
55527;SDS011;52818;43.308;21.916;2024-02-15T05:20:48;27.20;;;19.20;;
55527;SDS011;52818;43.308;21.916;2024-02-15T05:22:48;26.60;;;19.60;;
55527;SDS011;52818;43.308;21.916;2024-02-15T05:24:55;29.60;;;19.80;;
55527;SDS011;52818;43.308;21.916;2024-02-15T05:26:49;31.50;;;22.20;;
55527;SDS011;52818;43.308;21.916;2024-02-15T05:31:08;40.00;;;26.30;;
55527;SDS011;52818;43.308;21.916;2024-02-15T05:32:48;78.40;;;41.30;;
55527;SDS011;52818;43.308;21.916;2024-02-15T05:34:48;64.80;;;37.10;;
55527;SDS011;52818;43.308;21.916;2024-02-15T05:36:48;57.40;;;33.40;;
55527;SDS011;52818;43.308;21.916;2024-02-15T05:38:49;49.90;;;30.40;;
55527;SDS011;52818;43.308;21.916;2024-02-15T05:40:49;41.80;;;25.60;;
55527;SDS011;52818;43.308;21.916;2024-02-15T05:42:54;35.30;;;23.40;;
55527;SDS011;52818;43.308;21.916;2024-02-15T05:44:49;31.30;;;19.90;;
55527;SDS011;52818;43.308;21.916;2024-02-15T05:46:49;28.90;;;19.50;;
55527;SDS011;52818;43.308;21.916;2024-02-15T05:48:54;30.70;;;23.00;;
55527;SDS011;52818;43.308;21.916;2024-02-15T05:50:49;35.40;;;27.40;;
55527;SDS011;52818;43.308;21.916;2024-02-15T05:52:50;30.00;;;22.00;;
55527;SDS011;52818;43.308;21.916;2024-02-15T05:56:59;32.20;;;25.20;;
55527;SDS011;52818;43.308;21.916;2024-02-15T05:58:50;33.20;;;24.20;;
55527;SDS011;52818;43.308;21.916;2024-02-15T06:02:50;34.60;;;24.20;;
55527;SDS011;52818;43.308;21.916;2024-02-15T06:04:50;32.70;;;;;
55527;SDS011;52818;43.308;21.916;2024-02-15T06:06:52;42.80;;;28.10;;
55527;SDS011;52818;43.308;21.916;2024-02-15T06:08:50;39.30;;;25.80;;
55527;SDS011;52818;43.308;21.916;2024-02-15T06:10:50;36.30;;;24.30;;
55527;SDS011;52818;43.308;21.916;2024-02-15T06:12:51;34.20;;;23.30;;
55527;SDS011;52818;43.308;21.916;2024-02-15T06:16:56;109.40;;;65.20;;
55527;SDS011;52818;43.308;21.916;2024-02-15T06:26:55;69.10;;;45.10;;
55527;SDS011;52818;43.308;21.916;2024-02-15T06:28:53;60.70;;;38.30;;
55527;SDS011;52818;43.308;21.916;2024-02-15T06:30:51;54.90;;;35.10;;
55527;SDS011;52818;43.308;21.916;2024-02-15T06:32:51;55.20;;;35.90;;
55527;SDS011;52818;43.308;21.916;2024-02-15T06:34:52;53.40;;;34.40;;
55527;SDS011;52818;43.308;21.916;2024-02-15T06:36:52;56.30;;;37.30;;
55527;SDS011;52818;43.308;21.916;2024-02-15T06:38:56;60.70;;;40.10;;
55527;SDS011;52818;43.308;21.916;2024-02-15T06:41:02;54.70;;;35.60;;
55527;SDS011;52818;43.308;21.916;2024-02-15T06:42:58;48.60;;;33.50;;
55527;SDS011;52818;43.308;21.916;2024-02-15T06:44:52;52.60;;;35.40;;
55527;SDS011;52818;43.308;21.916;2024-02-15T06:46:55;54.20;;;35.20;;
55527;SDS011;52818;43.308;21.916;2024-02-15T06:48:52;56.00;;;35.90;;
55527;SDS011;52818;43.308;21.916;2024-02-15T06:50:53;49.50;;;32.90;;
55527;SDS011;52818;43.308;21.916;2024-02-15T06:52:52;51.60;;;34.30;;
55527;SDS011;52818;43.308;21.916;2024-02-15T06:54:52;49.80;;;33.00;;
55527;SDS011;52818;43.308;21.916;2024-02-15T06:56:54;53.40;;;34.00;;
55527;SDS011;52818;43.308;21.916;2024-02-15T06:58:52;59.10;;;37.30;;
55527;SDS011;52818;43.308;21.916;2024-02-15T07:00:58;63.00;;;41.40;;
55527;SDS011;52818;43.308;21.916;2024-02-15T07:02:55;62.60;;;39.40;;
55527;SDS011;52818;43.308;21.916;2024-02-15T07:04:55;64.40;;;40.60;;
55527;SDS011;52818;43.308;21.916;2024-02-15T07:06:59;67.80;;;41.10;;
55527;SDS011;52818;43.308;21.916;2024-02-15T07:09:00;66.20;;;41.70;;
55527;SDS011;52818;43.308;21.916;2024-02-15T07:10:54;74.50;;;44.80;;
55527;SDS011;52818;43.308;21.916;2024-02-15T07:12:53;74.60;;;46.90;;
55527;SDS011;52818;43.308;21.916;2024-02-15T07:14:53;84.20;;;49.10;;
55527;SDS011;52818;43.308;21.916;2024-02-15T07:16:53;89.90;;;54.30;;
55527;SDS011;52818;43.308;21.916;2024-02-15T07:18:57;85.70;;;53.90;;
55527;SDS011;52818;43.308;21.916;2024-02-15T07:20:57;93.00;;;56.00;;
55527;SDS011;52818;43.308;21.916;2024-02-15T07:22:53;94.50;;;58.20;;
55527;SDS011;52818;43.308;21.916;2024-02-15T07:24:53;90.70;;;55.70;;
55527;SDS011;52818;43.308;21.916;2024-02-15T07:26:54;90.00;;;56.90;;
55527;SDS011;52818;43.308;21.916;2024-02-15T07:28:57;96.90;;;60.30;;
55527;SDS011;52818;43.308;21.916;2024-02-15T07:30:54;99.80;;;62.10;;
55527;SDS011;52818;43.308;21.916;2024-02-15T07:32:54;97.60;;;64.20;;
55527;SDS011;52818;43.308;21.916;2024-02-15T07:34:56;95.40;;;62.10;;
55527;SDS011;52818;43.308;21.916;2024-02-15T07:36:54;96.80;;;61.80;;
55527;SDS011;52818;43.308;21.916;2024-02-15T07:38:54;94.60;;;59.80;;
55527;SDS011;52818;43.308;21.916;2024-02-15T07:41:01;89.80;;;57.90;;
55527;SDS011;52818;43.308;21.916;2024-02-15T07:42:56;79.40;;;54.20;;
55527;SDS011;52818;43.308;21.916;2024-02-15T07:44:55;78.00;;;50.70;;
55527;SDS011;52818;43.308;21.916;2024-02-15T07:47:01;81.40;;;53.40;;
55527;SDS011;52818;43.308;21.916;2024-02-15T07:48:55;85.70;;;54.10;;
55527;SDS011;52818;43.308;21.916;2024-02-15T07:50:55;74.00;;;49.90;;
55527;SDS011;52818;43.308;21.916;2024-02-15T07:52:55;67.40;;;46.20;;
55527;SDS011;52818;43.308;21.916;2024-02-15T07:54:55;73.30;;;48.10;;
55527;SDS011;52818;43.308;21.916;2024-02-15T07:57:01;69.60;;;45.30;;
55527;SDS011;52818;43.308;21.916;2024-02-15T07:58:58;66.70;;;41.20;;
55527;SDS011;52818;43.308;21.916;2024-02-15T08:01:00;64.20;;;42.20;;
55527;SDS011;52818;43.308;21.916;2024-02-15T08:02:57;58.60;;;41.00;;
55527;SDS011;52818;43.308;21.916;2024-02-15T08:04:55;59.50;;;38.70;;
55527;SDS011;52818;43.308;21.916;2024-02-15T08:06:55;57.90;;;39.40;;
55527;SDS011;52818;43.308;21.916;2024-02-15T08:09:00;65.00;;;42.30;;
55527;SDS011;52818;43.308;21.916;2024-02-15T08:10:56;70.90;;;46.50;;
55527;SDS011;52818;43.308;21.916;2024-02-15T08:12:56;69.90;;;46.60;;
55527;SDS011;52818;43.308;21.916;2024-02-15T08:14:56;69.10;;;46.20;;
55527;SDS011;52818;43.308;21.916;2024-02-15T08:16:56;62.70;;;42.90;;
55527;SDS011;52818;43.308;21.916;2024-02-15T08:18:56;112.20;;;65.60;;
55527;SDS011;52818;43.308;21.916;2024-02-15T08:20:56;70.10;;;46.20;;
55527;SDS011;52818;43.308;21.916;2024-02-15T08:22:56;75.60;;;47.70;;
55527;SDS011;52818;43.308;21.916;2024-02-15T08:25:00;70.60;;;46.70;;
55527;SDS011;52818;43.308;21.916;2024-02-15T08:26:56;81.40;;;50.30;;
55527;SDS011;52818;43.308;21.916;2024-02-15T08:28:57;74.30;;;49.10;;
55527;SDS011;52818;43.308;21.916;2024-02-15T08:30:57;84.80;;;55.30;;
55527;SDS011;52818;43.308;21.916;2024-02-15T08:33:00;76.30;;;49.30;;
55527;SDS011;52818;43.308;21.916;2024-02-15T08:39:02;64.90;;;42.00;;
55527;SDS011;52818;43.308;21.916;2024-02-15T08:40:59;62.20;;;41.20;;
55527;SDS011;52818;43.308;21.916;2024-02-15T08:42:57;53.50;;;36.10;;
55527;SDS011;52818;43.308;21.916;2024-02-15T08:44:57;48.50;;;32.70;;
55527;SDS011;52818;43.308;21.916;2024-02-15T08:48:58;37.60;;;26.80;;
55527;SDS011;52818;43.308;21.916;2024-02-15T08:50:58;43.70;;;29.40;;
55527;SDS011;52818;43.308;21.916;2024-02-15T08:52:58;50.10;;;32.60;;
55527;SDS011;52818;43.308;21.916;2024-02-15T08:55:04;49.60;;;32.40;;
55527;SDS011;52818;43.308;21.916;2024-02-15T08:56:58;42.80;;;28.60;;
55527;SDS011;52818;43.308;21.916;2024-02-15T08:58:58;36.20;;;25.70;;
55527;SDS011;52818;43.308;21.916;2024-02-15T09:01:06;51.00;;;33.50;;
55527;SDS011;52818;43.308;21.916;2024-02-15T09:02:58;37.60;;;26.70;;
55527;SDS011;52818;43.308;21.916;2024-02-15T09:05:02;37.80;;;25.10;;
55527;SDS011;52818;43.308;21.916;2024-02-15T09:07:03;46.40;;;30.40;;
55527;SDS011;52818;43.308;21.916;2024-02-15T09:08:59;34.70;;;24.10;;
55527;SDS011;52818;43.308;21.916;2024-02-15T09:12:59;45.50;;;30.40;;
55527;SDS011;52818;43.308;21.916;2024-02-15T09:14:59;31.00;;;22.30;;
55527;SDS011;52818;43.308;21.916;2024-02-15T09:16:59;45.20;;;30.40;;
55527;SDS011;52818;43.308;21.916;2024-02-15T09:18:59;31.80;;;22.70;;
55527;SDS011;52818;43.308;21.916;2024-02-15T09:20:59;50.40;;;34.70;;
55527;SDS011;52818;43.308;21.916;2024-02-15T09:23:06;38.20;;;26.60;;
55527;SDS011;52818;43.308;21.916;2024-02-15T09:24:59;32.60;;;26.10;;
55527;SDS011;52818;43.308;21.916;2024-02-15T09:26:59;26.30;;;20.60;;
55527;SDS011;52818;43.308;21.916;2024-02-15T09:31:00;26.30;;;19.60;;
55527;SDS011;52818;43.308;21.916;2024-02-15T09:32:59;29.60;;;21.60;;
55527;SDS011;52818;43.308;21.916;2024-02-15T09:35:00;29.00;;;21.20;;
55527;SDS011;52818;43.308;21.916;2024-02-15T09:37:00;35.40;;;25.70;;
55527;SDS011;52818;43.308;21.916;2024-02-15T09:39:00;58.20;;;38.90;;
55527;SDS011;52818;43.308;21.916;2024-02-15T09:41:00;42.80;;;30.30;;
55527;SDS011;52818;43.308;21.916;2024-02-15T09:43:01;52.60;;;35.70;;
55527;SDS011;52818;43.308;21.916;2024-02-15T09:47:05;31.70;;;21.90;;
55527;SDS011;52818;43.308;21.916;2024-02-15T09:49:00;35.10;;;26.10;;
55527;SDS011;52818;43.308;21.916;2024-02-15T09:51:00;35.30;;;25.20;;
55527;SDS011;52818;43.308;21.916;2024-02-15T09:53:00;25.70;;;19.90;;
55527;SDS011;52818;43.308;21.916;2024-02-15T09:55:01;36.10;;;23.30;;
55527;SDS011;52818;43.308;21.916;2024-02-15T09:57:01;32.70;;;21.60;;
55527;SDS011;52818;43.308;21.916;2024-02-15T09:59:01;23.00;;;18.50;;
55527;SDS011;52818;43.308;21.916;2024-02-15T10:01:05;22.20;;;17.70;;
55527;SDS011;52818;43.308;21.916;2024-02-15T10:03:03;29.00;;;20.10;;
55527;SDS011;52818;43.308;21.916;2024-02-15T10:05:01;23.40;;;17.80;;
55527;SDS011;52818;43.308;21.916;2024-02-15T10:07:04;30.00;;;21.20;;
55527;SDS011;52818;43.308;21.916;2024-02-15T10:09:33;27.40;;;19.70;;
55527;SDS011;52818;43.308;21.916;2024-02-15T10:11:08;32.80;;;22.20;;
55527;SDS011;52818;43.308;21.916;2024-02-15T10:13:01;29.70;;;21.30;;
55527;SDS011;52818;43.308;21.916;2024-02-15T10:15:01;22.90;;;16.50;;
55527;SDS011;52818;43.308;21.916;2024-02-15T10:17:05;22.40;;;17.30;;
55527;SDS011;52818;43.308;21.916;2024-02-15T10:19:08;20.40;;;15.20;;
55527;SDS011;52818;43.308;21.916;2024-02-15T10:21:07;28.30;;;19.20;;
55527;SDS011;52818;43.308;21.916;2024-02-15T10:23:09;24.30;;;17.80;;
55527;SDS011;52818;43.308;21.916;2024-02-15T10:25:19;28.80;;;22.90;;
55527;SDS011;52818;43.308;21.916;2024-02-15T10:27:02;27.70;;;19.80;;
55527;SDS011;52818;43.308;21.916;2024-02-15T10:29:04;23.40;;;18.40;;
55527;SDS011;52818;43.308;21.916;2024-02-15T10:31:07;22.80;;;17.40;;
55527;SDS011;52818;43.308;21.916;2024-02-15T10:33:02;30.70;;;22.90;;
55527;SDS011;52818;43.308;21.916;2024-02-15T10:35:04;24.70;;;19.50;;
55527;SDS011;52818;43.308;21.916;2024-02-15T10:37:10;20.50;;;16.90;;
55527;SDS011;52818;43.308;21.916;2024-02-15T10:39:11;21.50;;;15.80;;
55527;SDS011;52818;43.308;21.916;2024-02-15T10:41:05;21.40;;;16.00;;
55527;SDS011;52818;43.308;21.916;2024-02-15T10:43:05;31.40;;;19.90;;
55527;SDS011;52818;43.308;21.916;2024-02-15T10:45:03;26.30;;;20.00;;
55527;SDS011;52818;43.308;21.916;2024-02-15T10:47:03;40.20;;;28.20;;
55527;SDS011;52818;43.308;21.916;2024-02-15T10:49:03;22.00;;;17.40;;
55527;SDS011;52818;43.308;21.916;2024-02-15T10:51:03;25.00;;;19.20;;
55527;SDS011;52818;43.308;21.916;2024-02-15T10:53:08;36.50;;;26.60;;
55527;SDS011;52818;43.308;21.916;2024-02-15T10:55:08;116.30;;;79.70;;
55527;SDS011;52818;43.308;21.916;2024-02-15T10:57:39;33.10;;;24.20;;
55527;SDS011;52818;43.308;21.916;2024-02-15T10:59:43;25.20;;;20.20;;
55527;SDS011;52818;43.308;21.916;2024-02-15T11:01:36;30.60;;;24.00;;
55527;SDS011;52818;43.308;21.916;2024-02-15T11:03:34;20.90;;;15.90;;
55527;SDS011;52818;43.308;21.916;2024-02-15T11:05:37;21.60;;;16.60;;
55527;SDS011;52818;43.308;21.916;2024-02-15T11:07:39;26.70;;;19.40;;
55527;SDS011;52818;43.308;21.916;2024-02-15T11:09:35;22.30;;;16.70;;
55527;SDS011;52818;43.308;21.916;2024-02-15T11:11:43;22.00;;;15.80;;
55527;SDS011;52818;43.308;21.916;2024-02-15T11:13:34;22.40;;;16.20;;
55527;SDS011;52818;43.308;21.916;2024-02-15T11:19:40;31.90;;;22.10;;
55527;SDS011;52818;43.308;21.916;2024-02-15T11:21:52;29.60;;;22.00;;
55527;SDS011;52818;43.308;21.916;2024-02-15T11:23:39;33.00;;;24.20;;
55527;SDS011;52818;43.308;21.916;2024-02-15T11:29:48;17.60;;;14.20;;
55527;SDS011;52818;43.308;21.916;2024-02-15T11:31:54;19.80;;;15.90;;
55527;SDS011;52818;43.308;21.916;2024-02-15T11:33:37;21.00;;;16.70;;
55527;SDS011;52818;43.308;21.916;2024-02-15T11:35:35;15.20;;;12.00;;
55527;SDS011;52818;43.308;21.916;2024-02-15T11:37:57;21.80;;;15.30;;
55527;SDS011;52818;43.308;21.916;2024-02-15T11:39:43;14.90;;;11.30;;
55527;SDS011;52818;43.308;21.916;2024-02-15T11:41:35;26.30;;;22.90;;
55527;SDS011;52818;43.308;21.916;2024-02-15T11:45:36;18.30;;;12.90;;
55527;SDS011;52818;43.308;21.916;2024-02-15T11:47:36;15.60;;;11.50;;
55527;SDS011;52818;43.308;21.916;2024-02-15T11:49:39;19.00;;;14.30;;
55527;SDS011;52818;43.308;21.916;2024-02-15T11:51:40;15.20;;;10.90;;
55527;SDS011;52818;43.308;21.916;2024-02-15T11:53:36;24.90;;;20.60;;
55527;SDS011;52818;43.308;21.916;2024-02-15T11:55:36;15.10;;;11.30;;
55527;SDS011;52818;43.308;21.916;2024-02-15T11:57:37;14.50;;;10.00;;
55527;SDS011;52818;43.308;21.916;2024-02-15T11:59:38;14.10;;;10.10;;
55527;SDS011;52818;43.308;21.916;2024-02-15T12:01:40;13.00;;;9.80;;
55527;SDS011;52818;43.308;21.916;2024-02-15T12:03:37;15.20;;;10.70;;
55527;SDS011;52818;43.308;21.916;2024-02-15T12:05:37;19.40;;;12.20;;
55527;SDS011;52818;43.308;21.916;2024-02-15T12:07:38;17.80;;;11.80;;
55527;SDS011;52818;43.308;21.916;2024-02-15T12:09:38;13.50;;;9.40;;
55527;SDS011;52818;43.308;21.916;2024-02-15T12:11:39;10.70;;;8.70;;
55527;SDS011;52818;43.308;21.916;2024-02-15T12:13:37;12.10;;;9.10;;
55527;SDS011;52818;43.308;21.916;2024-02-15T12:15:37;13.40;;;10.40;;
55527;SDS011;52818;43.308;21.916;2024-02-15T12:17:40;15.30;;;11.00;;
55527;SDS011;52818;43.308;21.916;2024-02-15T12:19:38;15.10;;;10.90;;
55527;SDS011;52818;43.308;21.916;2024-02-15T12:21:38;11.40;;;9.30;;
55527;SDS011;52818;43.308;21.916;2024-02-15T12:23:38;12.00;;;;;
55527;SDS011;52818;43.308;21.916;2024-02-15T12:25:38;12.90;;;;;
55527;SDS011;52818;43.308;21.916;2024-02-15T12:27:38;20.70;;;13.70;;
55527;SDS011;52818;43.308;21.916;2024-02-15T12:29:40;16.90;;;11.60;;
55527;SDS011;52818;43.308;21.916;2024-02-15T12:31:44;20.40;;;13.70;;
55527;SDS011;52818;43.308;21.916;2024-02-15T12:35:45;14.30;;;11.50;;
55527;SDS011;52818;43.308;21.916;2024-02-15T12:37:38;17.90;;;12.20;;
55527;SDS011;52818;43.308;21.916;2024-02-15T12:39:40;19.40;;;13.30;;
55527;SDS011;52818;43.308;21.916;2024-02-15T12:41:39;14.80;;;10.70;;
55527;SDS011;52818;43.308;21.916;2024-02-15T12:43:45;12.00;;;9.40;;
55527;SDS011;52818;43.308;21.916;2024-02-15T12:45:42;18.90;;;11.90;;